Time;durP1;ratioP1;P1;durP2;ratioP2;P2;SDS_P1;SDS_P2;PMS_P1;PMS_P2;Temp;Humidity;BMP_temperature;BMP_pressure;BME280_temperature;BME280_humidity;BME280_pressure;Samples;Min_cycle;Max_cycle;Signal;HPM_P1;HPM_P2
2021/03/31 00:01:23;;;;;;;6.25;5.03;;;;;;;19.02;53.94;102589.22;5016460;28;20033;-74
2021/03/31 00:03:49;;;;;;;8.20;6.55;;;;;;;19.00;53.52;102585.69;5013537;28;20134;-73
2021/03/31 00:06:14;;;;;;;6.00;5.20;;;;;;;18.99;53.98;102581.28;5029011;28;20049;-73
2021/03/31 00:08:39;;;;;;;6.60;5.90;;;;;;;18.99;53.54;102579.56;5000435;28;20495;-73
2021/03/31 00:11:05;;;;;;;6.93;5.82;;;;;;;18.90;53.96;102571.50;5016037;28;20061;-73
2021/03/31 00:13:31;;;;;;;7.97;6.53;;;;;;;18.96;53.75;102576.88;5031303;28;20029;-73
2021/03/31 00:15:57;;;;;;;7.40;6.55;;;;;;;18.95;53.55;102582.09;5032639;28;20029;-73
2021/03/31 00:18:23;;;;;;;6.78;5.45;;;;;;;18.97;53.77;102578.63;5014588;28;20030;-74
2021/03/31 00:20:50;;;;;;;7.85;6.00;;;;;;;18.99;53.78;102573.44;5001206;28;20123;-73
2021/03/31 00:23:22;;;;;;;7.35;5.88;;;;;;;18.95;53.68;102566.38;5031267;28;20064;-76
2021/03/31 00:25:48;;;;;;;7.07;5.53;;;;;;;18.92;53.65;102560.22;5024872;28;20029;-74
2021/03/31 00:28:14;;;;;;;6.32;5.60;;;;;;;18.96;53.92;102563.75;5015058;28;20029;-74
2021/03/31 00:30:40;;;;;;;5.80;5.18;;;;;;;18.97;53.76;102562.03;5042197;28;20022;-74
2021/03/31 00:33:06;;;;;;;7.85;5.90;;;;;;;18.95;53.76;102550.66;5032475;28;20060;-74
2021/03/31 00:35:32;;;;;;;7.18;6.03;;;;;;;18.95;53.89;102545.41;5015277;28;20030;-74
2021/03/31 00:37:58;;;;;;;7.68;6.47;;;;;;;18.97;53.77;102544.56;4999486;28;20044;-75
2021/03/31 00:40:28;;;;;;;6.22;5.30;;;;;;;18.94;53.34;102541.00;5019375;28;20360;-75
2021/03/31 00:42:54;;;;;;;9.15;7.22;;;;;;;18.91;53.69;102540.09;5032862;28;20033;-73
2021/03/31 00:45:19;;;;;;;7.18;5.38;;;;;;;18.90;53.66;102535.69;5033130;28;20113;-74
2021/03/31 00:47:45;;;;;;;7.15;5.90;;;;;;;18.96;53.83;102537.53;4993605;28;20034;-74
2021/03/31 00:50:14;;;;;;;6.57;5.90;;;;;;;18.94;53.54;102528.78;5016709;28;20148;-73
2021/03/31 00:52:42;;;;;;;5.93;4.97;;;;;;;18.96;53.77;102531.41;5031202;28;20125;-72
2021/03/31 00:55:09;;;;;;;8.95;6.45;;;;;;;18.94;53.69;102527.91;5012402;28;20128;-73
2021/03/31 00:57:35;;;;;;;6.45;5.07;;;;;;;18.94;53.77;102528.78;5030982;28;20032;-73
2021/03/31 01:00:02;;;;;;;7.22;5.90;;;;;;;18.92;53.68;102522.63;5018395;28;20490;-73
2021/03/31 01:02:27;;;;;;;6.60;5.85;;;;;;;18.94;53.63;102527.91;4999948;28;20067;-73
2021/03/31 01:04:53;;;;;;;8.82;5.88;;;;;;;18.90;53.67;102516.47;5030156;28;20041;-73
2021/03/31 01:07:18;;;;;;;7.10;6.05;;;;;;;18.93;53.77;102527.03;4996276;28;20046;-73
2021/03/31 01:09:43;;;;;;;7.22;5.25;;;;;;;18.92;53.67;102520.88;5032125;28;20032;-74
2021/03/31 01:12:24;;;;;;;6.95;6.25;;;;;;;18.92;53.68;102510.41;5029248;28;20026;-73
2021/03/31 01:15:11;;;;;;;6.88;5.30;;;;;;;18.87;53.66;102500.66;5034399;28;20037;-74
2021/03/31 01:18:34;;;;;;;7.65;5.85;;;;;;;18.91;53.59;102510.38;5034180;28;20021;-74
2021/03/31 01:21:41;;;;;;;7.82;6.28;;;;;;;18.87;53.57;102496.31;4942602;29;20031;-74
2021/03/31 01:24:44;;;;;;;6.78;6.05;;;;;;;18.91;53.68;102500.78;4936091;29;20049;-73
2021/03/31 01:27:18;;;;;;;6.03;5.43;;;;;;;18.88;53.55;102503.31;5025836;28;20041;-74
2021/03/31 01:30:06;;;;;;;6.32;5.72;;;;;;;18.86;53.63;102491.91;5040496;28;20032;-74
2021/03/31 01:32:46;;;;;;;6.82;6.13;;;;;;;18.86;53.79;102486.69;5025912;28;20026;-74
2021/03/31 01:35:15;;;;;;;7.32;6.50;;;;;;;18.86;53.52;102485.78;5035868;28;20032;-74
2021/03/31 01:37:44;;;;;;;7.47;5.97;;;;;;;18.85;53.57;102489.25;5033594;28;20047;-74
2021/03/31 01:40:12;;;;;;;7.28;5.45;;;;;;;18.82;53.67;102482.25;5038495;28;20032;-73
2021/03/31 01:42:44;;;;;;;8.80;6.95;;;;;;;18.85;53.69;102482.28;4999694;28;20121;-74
2021/03/31 01:45:10;;;;;;;7.45;6.65;;;;;;;18.83;53.58;102470.88;5031686;28;20018;-72
2021/03/31 01:47:39;;;;;;;6.70;5.57;;;;;;;18.87;53.68;102487.56;5019500;28;20034;-73
2021/03/31 01:50:07;;;;;;;8.10;6.32;;;;;;;18.83;53.64;102473.50;5018386;28;20052;-72
2021/03/31 01:52:34;;;;;;;6.82;5.97;;;;;;;18.88;53.41;102477.09;5019304;28;20042;-72
2021/03/31 01:55:00;;;;;;;8.13;6.97;;;;;;;18.88;53.57;102477.09;5032989;28;20079;-72
2021/03/31 01:57:27;;;;;;;9.93;7.38;;;;;;;18.83;53.57;102468.25;5036256;28;20506;-73
2021/03/31 01:59:54;;;;;;;7.22;6.32;;;;;;;18.87;53.45;102472.72;5000182;28;20044;-73
2021/03/31 02:02:21;;;;;;;6.70;5.15;;;;;;;18.88;53.48;102470.97;5035852;28;20026;-73
2021/03/31 02:04:47;;;;;;;9.25;7.53;;;;;;;18.85;53.49;102466.56;5024795;28;20037;-73
2021/03/31 02:07:13;;;;;;;7.45;6.07;;;;;;;18.82;53.57;102460.41;5016774;28;20104;-73
2021/03/31 02:09:47;;;;;;;7.13;6.28;;;;;;;18.82;53.12;102461.28;5021743;28;20036;-72
2021/03/31 02:12:18;;;;;;;8.20;5.95;;;;;;;18.84;53.55;102461.28;5026957;28;20387;-73
2021/03/31 02:14:46;;;;;;;7.78;6.47;;;;;;;18.86;53.52;102462.19;5012328;28;20029;-74
2021/03/31 02:17:20;;;;;;;7.03;6.32;;;;;;;18.79;53.58;102449.84;5037913;28;20434;-73
2021/03/31 02:19:48;;;;;;;6.78;6.07;;;;;;;18.85;53.41;102453.44;5031762;28;20076;-73
2021/03/31 02:22:19;;;;;;;7.40;6.22;;;;;;;18.80;53.43;102447.25;5027856;28;20049;-73
2021/03/31 02:24:45;;;;;;;7.32;6.47;;;;;;;18.85;53.45;102456.06;5013824;28;20064;-73
2021/03/31 02:27:12;;;;;;;7.35;6.47;;;;;;;18.80;53.36;102444.63;5036190;28;20029;-73
2021/03/31 02:29:38;;;;;;;8.70;7.25;;;;;;;18.82;53.52;102442.94;5014380;28;20032;-73
2021/03/31 02:32:06;;;;;;;9.20;7.00;;;;;;;18.80;53.43;102442.03;5042923;28;20021;-73
2021/03/31 02:34:35;;;;;;;7.25;6.00;;;;;;;18.81;53.51;102440.28;5030961;28;20032;-73
2021/03/31 02:37:02;;;;;;;6.68;5.93;;;;;;;18.80;53.47;102436.78;5009208;28;20025;-74
2021/03/31 02:39:28;;;;;;;7.85;6.30;;;;;;;18.80;53.34;102435.91;5031359;28;20022;-73
2021/03/31 02:41:58;;;;;;;6.80;5.80;;;;;;;18.83;53.53;102434.19;5028121;28;20035;-74
2021/03/31 02:44:26;;;;;;;7.07;6.25;;;;;;;18.83;53.35;102436.81;5038274;28;20029;-73
2021/03/31 02:46:55;;;;;;;7.85;6.32;;;;;;;18.80;53.73;102428.03;5052894;28;20024;-74
2021/03/31 02:49:21;;;;;;;7.35;6.32;;;;;;;18.82;53.54;102429.84;5034057;28;20109;-73
2021/03/31 02:51:49;;;;;;;7.43;6.55;;;;;;;18.82;53.52;102426.31;5033796;28;20061;-73
2021/03/31 02:54:16;;;;;;;6.95;5.80;;;;;;;18.78;53.34;102414.91;5031615;28;20128;-73
2021/03/31 02:56:42;;;;;;;6.72;5.90;;;;;;;18.80;53.40;102418.44;5017343;28;20029;-73
2021/03/31 02:59:07;;;;;;;6.55;5.90;;;;;;;18.81;53.39;102412.34;5028825;28;20030;-73
2021/03/31 03:01:33;;;;;;;6.85;6.10;;;;;;;18.81;53.43;102406.22;5012820;28;20033;-73
2021/03/31 03:03:58;;;;;;;10.10;7.13;;;;;;;18.78;53.40;102404.41;5016891;28;20104;-73
2021/03/31 03:06:30;;;;;;;7.68;6.97;;;;;;;18.77;53.34;102393.91;5011769;28;20025;-73
2021/03/31 03:08:57;;;;;;;7.47;6.07;;;;;;;18.80;53.52;102400.09;5016249;28;20500;-73
2021/03/31 03:11:24;;;;;;;6.65;5.82;;;;;;;18.76;53.41;102389.50;5037032;28;20028;-73
2021/03/31 03:13:50;;;;;;;6.43;5.68;;;;;;;18.69;53.55;102382.41;5016921;28;20080;-73
2021/03/31 03:16:17;;;;;;;7.32;6.63;;;;;;;18.80;53.37;102397.47;5016479;28;20441;-73
2021/03/31 03:18:43;;;;;;;7.22;6.00;;;;;;;18.79;53.53;102405.28;5023372;28;20121;-73
2021/03/31 03:21:10;;;;;;;6.80;5.75;;;;;;;18.78;53.43;102401.78;5035963;28;20432;-73
2021/03/31 03:23:36;;;;;;;7.50;6.70;;;;;;;18.76;53.61;102397.38;5017498;28;20030;-73
2021/03/31 03:26:02;;;;;;;7.22;5.97;;;;;;;18.75;53.35;102393.84;5004084;28;20064;-73
2021/03/31 03:28:30;;;;;;;7.85;6.90;;;;;;;18.73;53.47;102386.81;5016082;28;20030;-73
2021/03/31 03:30:56;;;;;;;7.30;5.85;;;;;;;18.78;53.35;102393.03;5012172;28;20033;-72
2021/03/31 03:33:22;;;;;;;7.50;6.47;;;;;;;18.76;53.19;102386.88;5031897;28;20025;-73
2021/03/31 03:35:48;;;;;;;7.05;6.35;;;;;;;18.72;53.46;102380.69;5017063;28;20025;-73
2021/03/31 03:38:14;;;;;;;7.10;5.95;;;;;;;18.76;53.35;102387.78;4997816;28;20113;-73
2021/03/31 03:40:40;;;;;;;6.57;5.88;;;;;;;18.77;53.40;102379.06;5015628;28;20064;-73
2021/03/31 03:43:06;;;;;;;6.82;5.68;;;;;;;18.71;53.20;102371.06;5016950;28;20391;-73
2021/03/31 03:45:32;;;;;;;6.75;5.72;;;;;;;18.75;53.28;102380.75;5016607;28;20379;-74
2021/03/31 03:47:58;;;;;;;7.07;6.38;;;;;;;18.73;53.24;102373.72;5030124;28;20030;-74
2021/03/31 03:50:24;;;;;;;7.50;6.43;;;;;;;18.75;53.27;102372.00;5006686;28;20029;-74
2021/03/31 03:52:51;;;;;;;6.78;6.00;;;;;;;18.75;53.37;102374.63;5051880;28;20521;-74
2021/03/31 03:55:23;;;;;;;7.18;6.07;;;;;;;18.74;53.34;102370.25;5050416;28;20083;-73
2021/03/31 03:57:49;;;;;;;8.18;6.95;;;;;;;18.70;53.38;102365.78;5052558;28;20033;-74
2021/03/31 04:00:24;;;;;;;6.95;6.13;;;;;;;18.75;53.26;102366.78;5053730;28;20028;-73
2021/03/31 04:02:54;;;;;;;7.18;6.43;;;;;;;18.71;53.19;102360.59;5034684;28;20480;-74
2021/03/31 04:05:19;;;;;;;7.60;6.90;;;;;;;18.71;53.23;102362.31;5034830;28;20437;-74
2021/03/31 04:07:45;;;;;;;6.53;5.60;;;;;;;18.70;53.46;102355.31;5003296;28;20041;-74
2021/03/31 04:10:11;;;;;;;7.18;6.28;;;;;;;18.73;53.24;102360.63;5050884;28;20485;-74
2021/03/31 04:12:38;;;;;;;7.63;6.78;;;;;;;18.73;53.18;102363.22;5053866;28;20024;-74
2021/03/31 04:15:06;;;;;;;7.53;6.00;;;;;;;18.70;53.36;102350.06;5036581;28;20390;-74
2021/03/31 04:17:35;;;;;;;6.95;6.25;;;;;;;18.69;53.39;102353.56;5034450;28;20033;-73
2021/03/31 04:20:01;;;;;;;8.50;7.40;;;;;;;18.65;53.26;102341.25;5041951;28;20036;-74
2021/03/31 04:22:27;;;;;;;8.43;6.47;;;;;;;18.71;52.90;102357.97;5036128;28;20040;-75
2021/03/31 04:24:54;;;;;;;7.82;6.82;;;;;;;18.68;53.31;102357.94;5018905;28;20067;-74
2021/03/31 04:27:22;;;;;;;7.13;6.43;;;;;;;18.70;53.58;102352.69;5048842;28;20035;-74
2021/03/31 04:29:49;;;;;;;6.90;6.20;;;;;;;18.71;53.19;102352.72;5050853;28;20032;-74
2021/03/31 04:32:17;;;;;;;6.90;6.00;;;;;;;18.69;53.19;102348.34;5052893;28;20040;-74
2021/03/31 04:34:44;;;;;;;9.15;6.30;;;;;;;18.66;53.56;102345.66;5060075;28;20025;-72
2021/03/31 04:37:09;;;;;;;7.25;6.10;;;;;;;18.64;53.41;102337.75;5017618;28;20060;-72
2021/03/31 04:39:38;;;;;;;6.80;5.28;;;;;;;18.69;53.33;102340.47;5052784;28;20060;-72
2021/03/31 04:42:08;;;;;;;7.50;6.75;;;;;;;18.72;53.35;102340.50;5033953;28;20111;-72
2021/03/31 04:44:34;;;;;;;7.18;5.45;;;;;;;18.65;53.33;102326.44;5060451;28;20040;-72
2021/03/31 04:47:00;;;;;;;6.78;5.85;;;;;;;18.73;53.28;102337.91;5047681;28;20033;-72
2021/03/31 04:49:26;;;;;;;7.97;5.90;;;;;;;18.73;53.34;102339.66;5035506;28;20370;-71
2021/03/31 04:51:51;;;;;;;8.18;6.70;;;;;;;18.70;53.26;102334.34;5034692;28;20040;-72
2021/03/31 04:54:16;;;;;;;7.35;5.75;;;;;;;18.74;53.45;102336.19;5016297;28;20029;-73
2021/03/31 04:56:42;;;;;;;5.90;5.30;;;;;;;18.70;53.43;102336.97;5034124;28;20102;-72
2021/03/31 04:59:07;;;;;;;6.57;5.38;;;;;;;18.73;53.16;102337.91;5051112;28;20025;-73
2021/03/31 05:01:33;;;;;;;5.63;5.05;;;;;;;18.72;53.37;102343.13;5030199;28;20030;-73
2021/03/31 05:03:58;;;;;;;8.05;6.85;;;;;;;18.67;53.47;102332.59;5051452;28;20044;-75
2021/03/31 05:06:23;;;;;;;7.38;6.68;;;;;;;18.68;53.33;102339.59;5017080;28;20159;-73
2021/03/31 05:08:49;;;;;;;6.57;5.47;;;;;;;18.69;53.59;102343.09;5036244;28;20162;-72
2021/03/31 05:11:14;;;;;;;7.60;5.93;;;;;;;18.68;53.50;102336.97;4999677;28;20047;-73
2021/03/31 05:13:39;;;;;;;8.07;6.40;;;;;;;18.63;53.68;102329.88;5034079;28;20471;-72
2021/03/31 05:16:05;;;;;;;7.43;5.80;;;;;;;18.68;53.82;102342.22;5030641;28;20033;-74
2021/03/31 05:18:31;;;;;;;6.93;5.88;;;;;;;18.67;53.51;102337.81;5033150;28;20036;-73
2021/03/31 05:20:56;;;;;;;8.80;7.22;;;;;;;18.68;53.68;102338.72;5031937;28;20032;-74
2021/03/31 05:23:21;;;;;;;7.50;6.63;;;;;;;18.67;53.42;102334.31;5024402;28;20036;-73
2021/03/31 05:25:47;;;;;;;6.53;5.82;;;;;;;18.69;53.45;102337.84;5014832;28;20067;-74
2021/03/31 05:28:12;;;;;;;6.60;5.90;;;;;;;18.65;53.44;102336.91;5051295;28;20116;-74
2021/03/31 05:30:37;;;;;;;8.60;6.03;;;;;;;18.65;53.77;102333.41;5025998;28;20112;-73
2021/03/31 05:33:03;;;;;;;8.77;5.75;;;;;;;18.66;53.64;102335.16;5040501;28;20025;-72
2021/03/31 05:35:28;;;;;;;10.55;6.18;;;;;;;18.63;53.50;102328.13;5011211;28;20155;-73
2021/03/31 05:37:54;;;;;;;8.23;6.95;;;;;;;18.68;53.37;102325.59;5053475;28;20021;-74
2021/03/31 05:40:20;;;;;;;8.68;6.93;;;;;;;18.61;53.63;102314.13;5019206;28;20511;-73
2021/03/31 05:42:45;;;;;;;8.40;6.50;;;;;;;18.68;54.00;102326.50;5020055;28;20033;-74
2021/03/31 05:45:12;;;;;;;11.10;7.35;;;;;;;18.65;53.63;102310.69;5055164;28;20029;-73
2021/03/31 05:47:45;;;;;;;10.60;6.43;;;;;;;18.70;53.77;102327.38;5036708;28;20124;-73
2021/03/31 05:50:16;;;;;;;8.73;5.80;;;;;;;18.70;53.66;102332.59;5036203;28;20547;-75
2021/03/31 05:52:43;;;;;;;8.27;6.78;;;;;;;18.69;53.59;102325.63;5035357;28;20105;-74
2021/03/31 05:55:11;;;;;;;7.07;6.22;;;;;;;18.70;53.66;102327.38;5025862;28;20021;-72
2021/03/31 05:57:37;;;;;;;8.77;6.72;;;;;;;18.70;53.69;102326.47;5036258;28;20029;-74
2021/03/31 06:00:08;;;;;;;8.75;6.32;;;;;;;18.58;53.59;102303.56;5054290;28;20032;-75
2021/03/31 06:02:34;;;;;;;7.55;6.50;;;;;;;18.63;53.63;102308.91;5037820;28;20021;-75
2021/03/31 06:05:01;;;;;;;6.45;5.57;;;;;;;18.71;53.79;102323.00;5039577;28;20116;-75
2021/03/31 06:07:27;;;;;;;7.22;6.40;;;;;;;18.71;54.00;102318.66;5016926;28;20037;-75
2021/03/31 06:10:07;;;;;;;6.97;6.28;;;;;;;18.69;53.72;102322.13;5041060;28;20029;-74
2021/03/31 06:12:36;;;;;;;8.20;6.25;;;;;;;18.72;53.76;102324.78;5039255;28;20036;-74
2021/03/31 06:15:30;;;;;;;7.55;6.47;;;;;;;18.72;53.88;102325.66;5036178;28;20029;-73
2021/03/31 06:18:00;;;;;;;;;;;;;;;18.73;53.64;102321.31;5038824;28;20375;-73
2021/03/31 06:20:40;;;;;;;7.43;6.53;;;;;;;18.73;53.85;102324.81;5038771;28;19913;-74
2021/03/31 06:26:06;;;;;;;8.23;5.75;;;;;;;18.70;53.83;102316.88;5051744;28;20025;-72
2021/03/31 06:28:36;;;;;;;7.22;6.32;;;;;;;18.73;53.79;102316.94;5006365;28;20029;-72
2021/03/31 06:31:07;;;;;;;7.43;5.55;;;;;;;18.72;53.62;102301.19;5018847;28;20028;-72
2021/03/31 06:33:33;;;;;;;7.82;6.63;;;;;;;18.71;53.52;102302.03;5045269;28;20012;-75
2021/03/31 06:35:59;;;;;;;9.57;7.40;;;;;;;18.79;53.65;102313.56;5040236;28;20074;-73
2021/03/31 06:38:36;;;;;;;7.05;6.35;;;;;;;18.78;53.50;102319.66;5056073;28;20111;-73
2021/03/31 06:41:21;;;;;;;7.75;6.07;;;;;;;18.76;53.47;102314.38;5056457;28;20071;-73
2021/03/31 06:44:17;;;;;;;9.90;5.85;;;;;;;18.85;53.32;102325.03;5056227;28;20040;-73
2021/03/31 06:46:56;;;;;;;8.85;6.35;;;;;;;18.89;53.20;102321.59;5056121;28;20052;-72
2021/03/31 06:49:21;;;;;;;8.07;6.32;;;;;;;18.86;53.41;102303.19;5052390;28;20067;-73
2021/03/31 06:51:47;;;;;;;6.30;5.70;;;;;;;18.95;53.37;102314.72;5004211;28;20076;-72
2021/03/31 06:54:22;;;;;;;11.05;7.07;;;;;;;18.95;53.34;102305.09;5054512;28;20100;-72
2021/03/31 06:56:56;;;;;;;9.05;7.47;;;;;;;18.95;53.39;102307.72;5054175;28;20040;-72
2021/03/31 06:59:32;;;;;;;8.70;6.82;;;;;;;18.97;53.25;102311.22;5055472;28;20033;-75
2021/03/31 07:01:58;;;;;;;8.90;7.00;;;;;;;18.99;53.29;102312.13;5059904;28;20055;-73
2021/03/31 07:04:25;;;;;;;6.30;5.57;;;;;;;18.99;53.32;102313.88;5062700;28;20028;-73
2021/03/31 07:07:17;;;;;;;8.18;6.30;;;;;;;18.97;53.32;102299.88;5012566;28;20490;-74
2021/03/31 07:09:44;;;;;;;9.00;6.97;;;;;;;18.99;53.37;102295.53;5031396;28;20441;-73
2021/03/31 07:12:21;;;;;;;11.75;7.22;;;;;;;19.01;53.26;102299.06;5055094;28;20040;-73
2021/03/31 07:14:48;;;;;;;6.97;5.88;;;;;;;19.04;53.34;102292.13;5019301;28;20025;-74
2021/03/31 07:17:25;;;;;;;7.60;6.20;;;;;;;19.01;53.38;102297.31;5023428;28;20025;-75
2021/03/31 07:19:51;;;;;;;8.43;7.00;;;;;;;19.06;53.23;102300.03;5029431;28;20029;-72
2021/03/31 07:22:17;;;;;;;10.57;7.10;;;;;;;19.05;53.34;102298.25;5035526;28;20034;-72
2021/03/31 07:24:43;;;;;;;8.02;6.45;;;;;;;19.14;53.34;102307.16;5020408;28;20431;-74
2021/03/31 07:27:08;;;;;;;7.65;6.20;;;;;;;19.15;53.56;102305.41;5037697;28;20078;-74
2021/03/31 07:29:36;;;;;;;12.35;7.28;;;;;;;19.15;53.46;102308.91;5020197;28;20386;-72
2021/03/31 07:32:03;;;;;;;12.27;7.00;;;;;;;19.16;53.64;102308.06;5036235;28;20063;-72
2021/03/31 07:34:30;;;;;;;9.90;7.15;;;;;;;19.15;53.60;102305.41;5020877;28;20060;-73
2021/03/31 07:36:57;;;;;;;11.70;7.05;;;;;;;19.21;53.75;102316.00;5027542;28;20025;-75
2021/03/31 07:39:29;;;;;;;9.63;7.25;;;;;;;19.20;53.71;102311.63;5043882;28;20040;-75
2021/03/31 07:41:56;;;;;;;9.68;6.72;;;;;;;19.13;53.50;102296.63;5049839;28;20025;-74
2021/03/31 07:44:34;;;;;;;7.35;6.38;;;;;;;19.22;53.85;102317.75;5029949;28;20475;-73
2021/03/31 07:47:01;;;;;;;10.02;7.35;;;;;;;19.24;53.90;102310.78;5046861;28;20497;-73
2021/03/31 07:49:27;;;;;;;8.23;7.10;;;;;;;19.19;53.59;102292.38;5049074;28;20035;-75
2021/03/31 07:52:04;;;;;;;10.45;7.40;;;;;;;19.26;53.62;102304.72;5020480;28;20052;-78
2021/03/31 07:54:32;;;;;;;7.53;6.38;;;;;;;19.28;53.85;102304.75;5055752;28;20067;-73
2021/03/31 07:56:59;;;;;;;9.13;6.28;;;;;;;19.24;53.53;102290.69;5041237;28;20032;-74
2021/03/31 07:59:25;;;;;;;7.80;7.00;;;;;;;19.27;53.45;102297.72;5020911;28;20028;-73
2021/03/31 08:01:57;;;;;;;9.02;7.43;;;;;;;19.29;53.57;102301.25;5036575;28;20078;-73
2021/03/31 08:04:25;;;;;;;8.65;6.60;;;;;;;19.31;53.58;102298.66;5054587;28;20094;-73
2021/03/31 08:06:53;;;;;;;9.73;7.55;;;;;;;19.24;53.20;102289.81;5036661;28;20013;-74
2021/03/31 08:09:20;;;;;;;8.48;7.10;;;;;;;19.29;53.25;102293.38;5033133;28;20383;-74
2021/03/31 08:11:50;;;;;;;8.48;7.53;;;;;;;19.32;53.22;102298.69;5034980;28;20116;-74
2021/03/31 08:14:24;;;;;;;9.13;6.80;;;;;;;19.26;53.20;102280.22;5046914;28;20025;-74
2021/03/31 08:16:50;;;;;;;8.75;6.60;;;;;;;19.26;53.22;102286.34;5053641;28;20087;-74
2021/03/31 08:19:21;;;;;;;7.30;6.60;;;;;;;19.32;53.22;102290.81;5052249;28;20033;-73
2021/03/31 08:21:48;;;;;;;8.10;6.35;;;;;;;19.29;53.19;102285.53;5038205;28;20036;-74
2021/03/31 08:24:15;;;;;;;10.27;8.30;;;;;;;19.30;53.22;102279.41;5016277;28;20041;-74
2021/03/31 08:26:45;;;;;;;11.13;7.47;;;;;;;19.35;53.17;102285.59;5037905;28;20031;-73
2021/03/31 08:29:30;;;;;;;10.05;7.78;;;;;;;19.35;53.09;102282.97;5037137;28;20429;-74
2021/03/31 08:31:58;;;;;;;8.95;6.80;;;;;;;19.36;53.15;102282.13;5038793;28;20033;-73
2021/03/31 08:34:24;;;;;;;7.97;6.10;;;;;;;19.36;53.02;102282.13;5018890;28;20083;-73
2021/03/31 08:36:50;;;;;;;7.20;6.50;;;;;;;19.33;53.03;102275.97;5035703;28;20386;-74
2021/03/31 08:39:16;;;;;;;8.80;7.03;;;;;;;19.37;53.09;102281.25;5053650;28;20424;-73
2021/03/31 08:41:52;;;;;;;10.93;8.48;;;;;;;19.33;53.42;102271.59;5035788;28;20032;-74
2021/03/31 08:44:36;;;;;;;10.15;7.30;;;;;;;19.32;53.28;102276.81;5031939;28;20032;-84
2021/03/31 08:47:11;;;;;;;;;;;;;;;19.36;52.86;102278.59;5037300;28;20124;-73
2021/03/31 08:49:38;;;;;;;10.95;8.13;;;;;;;19.39;52.50;102282.16;5036287;28;19912;-76
2021/03/31 08:52:07;;;;;;;9.70;8.68;;;;;;;19.37;52.42;102278.63;5044899;28;20045;-74
2021/03/31 08:54:46;;;;;;;15.50;8.93;;;;;;;19.39;52.77;102279.53;5051334;28;20438;-78
2021/03/31 08:57:25;;;;;;;11.90;8.32;;;;;;;19.37;52.67;102273.38;5017940;28;20056;-74
2021/03/31 09:00:01;;;;;;;12.80;9.07;;;;;;;19.42;52.62;102284.84;5010096;28;20044;-73
2021/03/31 09:02:34;;;;;;;8.88;7.30;;;;;;;19.42;52.69;102283.94;5015495;28;20033;-72
2021/03/31 09:05:01;;;;;;;9.53;7.63;;;;;;;19.37;52.88;102275.13;4994787;28;20037;-72
2021/03/31 09:07:27;;;;;;;10.20;7.88;;;;;;;19.40;52.93;102272.56;5015871;28;20029;-73
2021/03/31 09:09:53;;;;;;;10.25;7.40;;;;;;;19.32;53.04;102263.72;5034969;28;20040;-74
2021/03/31 09:12:21;;;;;;;9.82;7.13;;;;;;;19.37;52.82;102270.75;5034229;28;20119;-73
2021/03/31 09:14:48;;;;;;;9.35;7.68;;;;;;;19.40;52.95;102276.06;5033100;28;20428;-73
2021/03/31 09:17:28;;;;;;;9.50;7.47;;;;;;;19.40;52.82;102281.31;5015449;28;20120;-73
2021/03/31 09:19:59;;;;;;;12.48;8.90;;;;;;;19.31;53.02;102267.19;5016279;28;20103;-72
2021/03/31 09:22:29;;;;;;;8.88;7.50;;;;;;;19.36;52.75;102270.72;5033328;28;20044;-72
2021/03/31 09:24:59;;;;;;;8.80;7.75;;;;;;;19.40;52.87;102275.19;5017566;28;20021;-73
2021/03/31 09:27:27;;;;;;;9.20;7.10;;;;;;;19.39;52.36;102273.41;5031944;28;20480;-73
2021/03/31 09:29:54;;;;;;;7.97;7.18;;;;;;;19.36;52.61;102273.34;5015278;28;20434;-73
2021/03/31 09:32:30;;;;;;;8.93;7.85;;;;;;;19.31;52.39;102260.19;5013032;28;20476;-73
2021/03/31 09:34:55;;;;;;;11.30;9.27;;;;;;;19.34;52.73;102264.63;5007670;28;20033;-74
2021/03/31 09:37:21;;;;;;;10.57;8.63;;;;;;;19.39;52.54;102273.41;4999113;28;20037;-74
2021/03/31 09:39:46;;;;;;;11.25;7.88;;;;;;;19.39;52.63;102271.66;5009656;28;20068;-73
2021/03/31 09:42:33;;;;;;;9.00;8.10;;;;;;;19.37;52.64;102269.88;5024736;28;20116;-74
2021/03/31 09:44:59;;;;;;;8.75;7.85;;;;;;;19.39;52.65;102269.03;5035609;28;20021;-74
2021/03/31 09:47:28;;;;;;;8.88;7.97;;;;;;;19.36;52.53;102257.63;5023369;28;20091;-73
2021/03/31 09:49:54;;;;;;;8.18;7.38;;;;;;;19.38;52.56;102259.41;5006832;28;20033;-76
2021/03/31 09:52:25;;;;;;;7.72;6.70;;;;;;;19.37;52.54;102257.66;5029828;28;20045;-73
2021/03/31 09:54:51;;;;;;;10.38;8.10;;;;;;;19.27;52.66;102240.91;5022855;28;20032;-73
2021/03/31 09:57:17;;;;;;;11.32;8.73;;;;;;;19.35;52.53;102251.50;5030996;28;20032;-74
2021/03/31 09:59:43;;;;;;;8.55;7.72;;;;;;;19.34;52.46;102246.25;5032517;28;20037;-73
2021/03/31 10:02:10;;;;;;;8.90;8.00;;;;;;;19.28;52.44;102237.44;5019566;28;20031;-72
2021/03/31 10:04:38;;;;;;;9.48;8.27;;;;;;;19.34;52.31;102255.00;5037621;28;20029;-74
2021/03/31 10:07:18;;;;;;;8.40;7.55;;;;;;;19.35;52.50;102259.34;5019190;28;20025;-73
2021/03/31 10:09:51;;;;;;;8.10;7.30;;;;;;;19.34;52.55;102255.00;5037331;28;20075;-73
2021/03/31 10:12:35;;;;;;;8.90;8.00;;;;;;;19.29;52.66;102243.56;5033036;28;20518;-72
2021/03/31 10:15:04;;;;;;;7.55;6.53;;;;;;;19.35;52.44;102247.97;5028678;28;20061;-74
2021/03/31 10:17:32;;;;;;;9.48;7.75;;;;;;;19.31;52.35;102241.84;5016835;28;20040;-76
2021/03/31 10:20:12;;;;;;;8.93;7.53;;;;;;;19.35;52.41;102246.25;5021984;28;20120;-73
2021/03/31 10:22:38;;;;;;;8.88;7.97;;;;;;;19.35;52.54;102246.25;5029744;28;20037;-74
2021/03/31 10:25:06;;;;;;;8.05;6.57;;;;;;;19.33;52.48;102245.38;5018753;28;20025;-72
2021/03/31 10:27:46;;;;;;;11.70;8.83;;;;;;;19.33;52.29;102245.38;5018658;28;20121;-72
2021/03/31 10:30:32;;;;;;;8.55;7.63;;;;;;;19.35;52.34;102248.88;5020079;28;20029;-73
2021/03/31 10:32:58;;;;;;;10.13;7.88;;;;;;;19.27;52.32;102232.16;5029180;28;20037;-72
2021/03/31 10:35:55;;;;;;;8.85;7.28;;;;;;;19.35;52.31;102242.75;5023269;28;20497;-72
2021/03/31 10:38:40;;;;;;;8.77;7.30;;;;;;;19.32;52.22;102232.22;5017537;28;20026;-74
2021/03/31 10:54:11;;;;;;;10.95;9.35;;;;;;;19.37;51.22;102234.03;5019758;28;20034;-72
2021/03/31 10:56:37;;;;;;;10.90;8.35;;;;;;;19.40;51.59;102236.72;5018003;28;20037;-73
2021/03/31 10:59:04;;;;;;;11.70;9.10;;;;;;;19.40;51.21;102238.44;5025529;28;20067;-73
2021/03/31 11:01:30;;;;;;;13.85;10.43;;;;;;;19.37;50.42;102230.53;5057131;28;20021;-73
2021/03/31 11:03:56;;;;;;;10.85;9.00;;;;;;;19.38;51.20;102222.69;5031340;28;20045;-73
2021/03/31 11:06:24;;;;;;;10.23;8.53;;;;;;;19.40;51.57;102234.09;4999791;28;20117;-74
2021/03/31 11:08:53;;;;;;;12.23;9.65;;;;;;;19.38;51.41;102230.56;5017491;28;20230;-73
2021/03/31 11:11:18;;;;;;;12.77;11.23;;;;;;;19.37;50.73;102223.53;5004422;28;20440;-74
2021/03/31 11:13:43;;;;;;;12.75;10.25;;;;;;;19.42;51.23;102232.38;4990642;28;20029;-72
2021/03/31 11:16:10;;;;;;;13.80;9.80;;;;;;;19.42;50.98;102221.00;5005986;28;20060;-74
2021/03/31 11:26:40;;;;;;;14.02;11.73;;;;;;;19.41;49.51;102217.50;4965075;28;20102;-73
2021/03/31 11:29:05;;;;;;;11.93;10.50;;;;;;;19.42;49.78;102208.75;5015027;28;20030;-74
2021/03/31 11:31:31;;;;;;;14.68;12.98;;;;;;;19.41;49.60;102207.00;5005226;28;20080;-73
2021/03/31 11:33:56;;;;;;;15.02;12.32;;;;;;;19.41;48.65;102201.75;5028008;28;20036;-73
2021/03/31 11:36:22;;;;;;;16.98;12.35;;;;;;;19.36;49.45;102190.31;5012287;28;20064;-73
2021/03/31 11:38:47;;;;;;;18.25;13.63;;;;;;;19.44;47.63;102201.78;5028318;28;20383;-74
2021/03/31 11:41:13;;;;;;;14.88;11.73;;;;;;;19.44;48.53;102195.66;4991105;28;20116;-77
2021/03/31 11:43:38;;;;;;;16.92;12.88;;;;;;;19.45;49.49;102200.06;5019020;28;20025;-75
2021/03/31 11:46:04;;;;;;;15.73;12.48;;;;;;;19.45;49.51;102197.44;5002301;28;20094;-72
2021/03/31 11:48:29;;;;;;;15.05;12.85;;;;;;;19.48;48.92;102186.94;5036436;28;20026;-75
2021/03/31 11:50:55;;;;;;;17.25;13.40;;;;;;;19.49;47.85;102189.63;5004990;28;20158;-76
2021/03/31 11:53:20;;;;;;;19.08;14.45;;;;;;;19.49;47.69;102181.75;5039848;28;20036;-74
2021/03/31 11:55:46;;;;;;;18.70;14.13;;;;;;;19.52;48.15;102183.53;5022117;28;20128;-73
2021/03/31 11:58:11;;;;;;;14.43;12.05;;;;;;;19.53;48.02;102185.31;5034768;28;20029;-74